createdAt,value
2023-02-27T00:00:54.849Z,62.01
2023-02-27T00:01:53.813Z,61.59
2023-02-27T00:02:53.885Z,62.01
2023-02-27T00:03:53.996Z,61.90
2023-02-27T00:04:53.832Z,61.80
2023-02-27T00:05:53.781Z,62.24
2023-02-27T00:06:53.771Z,61.93
2023-02-27T00:07:54.759Z,62.87
2023-02-27T00:08:53.797Z,62.04
2023-02-27T00:09:53.765Z,62.45
2023-02-27T00:10:53.754Z,62.90
2023-02-27T00:11:53.717Z,62.55
2023-02-27T00:12:53.809Z,62.87
2023-02-27T00:13:53.789Z,62.87
2023-02-27T00:14:54.696Z,62.35
2023-02-27T00:15:53.752Z,62.98
2023-02-27T00:16:54.671Z,62.66
2023-02-27T00:17:53.735Z,62.14
2023-02-27T00:18:53.675Z,62.24
2023-02-27T00:19:53.633Z,62.66
2023-02-27T00:20:53.643Z,62.87
2023-02-27T00:21:53.637Z,62.76
2023-02-27T00:22:53.644Z,63.05
2023-02-27T00:23:53.588Z,62.45
2023-02-27T00:24:53.585Z,62.66
2023-02-27T00:25:53.608Z,62.66
2023-02-27T00:26:53.555Z,63.18
2023-02-27T00:27:53.591Z,63.39
2023-02-27T00:28:53.595Z,63.18
2023-02-27T00:29:53.513Z,62.87
2023-02-27T00:30:53.520Z,62.66
2023-02-27T00:31:53.642Z,62.76
2023-02-27T00:32:53.632Z,62.66
2023-02-27T00:33:53.537Z,62.98
2023-02-27T00:34:53.503Z,63.18
2023-02-27T00:35:53.490Z,63.29
2023-02-27T00:36:53.466Z,63.08
2023-02-27T00:37:54.456Z,63.18
2023-02-27T00:38:53.460Z,63.18
2023-02-27T00:39:53.423Z,62.87
2023-02-27T00:40:53.469Z,62.76
2023-02-27T00:41:53.392Z,62.87
2023-02-27T00:42:53.394Z,62.79
2023-02-27T00:43:53.473Z,63.10
2023-02-27T00:44:53.383Z,63.18
2023-02-27T00:45:53.365Z,63.49
2023-02-27T00:46:53.382Z,63.21
2023-02-27T00:47:53.389Z,63.53
2023-02-27T00:48:53.321Z,63.42
2023-02-27T00:49:53.312Z,63.34
2023-02-27T00:50:53.346Z,63.03
2023-02-27T00:51:53.301Z,63.55
2023-02-27T00:52:54.293Z,64.07
2023-02-27T00:53:53.336Z,64.28
2023-02-27T00:54:53.263Z,63.87
2023-02-27T00:55:54.255Z,64.39
2023-02-27T00:56:54.286Z,64.49
2023-02-27T00:57:53.313Z,64.39
2023-02-27T00:58:53.288Z,64.36
2023-02-27T00:59:53.252Z,64.49
2023-02-27T01:00:53.261Z,64.39
2023-02-27T01:01:53.212Z,64.46
2023-02-27T01:02:53.245Z,64.04
2023-02-27T01:03:53.289Z,64.25
2023-02-27T01:04:53.192Z,64.36
2023-02-27T01:05:53.148Z,64.15
2023-02-27T01:06:53.148Z,64.25
2023-02-27T01:07:53.107Z,63.94
2023-02-27T01:08:53.100Z,63.97
2023-02-27T01:09:53.141Z,64.49
2023-02-27T01:10:53.087Z,64.39
2023-02-27T01:11:53.095Z,63.76
2023-02-27T01:12:54.075Z,64.15
2023-02-27T01:13:53.090Z,64.39
2023-02-27T01:14:53.046Z,64.39
2023-02-27T01:15:54.083Z,64.39
2023-02-27T01:16:53.103Z,64.39
2023-02-27T01:17:53.010Z,64.59
2023-02-27T01:18:53.065Z,64.28
2023-02-27T01:19:52.973Z,65.01
2023-02-27T01:20:53.001Z,65.11
2023-02-27T01:21:53.001Z,65.22
2023-02-27T01:22:52.944Z,65.22
2023-02-27T01:23:52.969Z,65.33
2023-02-27T01:24:53.005Z,64.62
2023-02-27T01:25:52.965Z,65.38
2023-02-27T01:26:52.971Z,65.80
2023-02-27T01:27:52.892Z,66.11
2023-02-27T01:28:53.912Z,66.42
2023-02-27T01:29:53.886Z,66.63
2023-02-27T01:30:53.103Z,66.53
2023-02-27T01:31:53.997Z,66.53
2023-02-27T01:32:52.887Z,66.01
2023-02-27T01:33:52.906Z,66.53
2023-02-27T01:34:52.825Z,66.22
2023-02-27T01:35:52.847Z,66.74
2023-02-27T01:36:52.833Z,66.63
2023-02-27T01:37:52.937Z,66.66
2023-02-27T01:38:52.811Z,66.66
2023-02-27T01:39:53.758Z,67.16
2023-02-27T01:40:52.764Z,67.05
2023-02-27T01:41:53.028Z,66.53
2023-02-27T01:42:52.745Z,66.01
2023-02-27T01:43:52.768Z,66.11
2023-02-27T01:44:52.713Z,67.05
2023-02-27T01:45:52.715Z,68.10
2023-02-27T01:46:52.744Z,67.85
2023-02-27T01:47:52.684Z,67.44
2023-02-27T01:48:52.676Z,67.13
2023-02-27T01:49:52.794Z,66.19
2023-02-27T01:50:52.670Z,66.39
2023-02-27T01:51:52.655Z,67.33
2023-02-27T01:52:52.691Z,66.60
2023-02-27T01:53:52.604Z,67.23
2023-02-27T01:54:52.615Z,66.39
2023-02-27T01:55:53.617Z,66.82
2023-02-27T01:56:52.640Z,66.71
2023-02-27T01:57:52.605Z,66.92
2023-02-27T01:58:52.545Z,67.44
2023-02-27T01:59:52.570Z,67.30
2023-02-27T02:00:52.646Z,67.30
2023-02-27T02:01:53.622Z,67.75
2023-02-27T02:02:52.582Z,66.50
2023-02-27T02:03:52.504Z,67.13
2023-02-27T02:04:52.522Z,67.85
2023-02-27T02:05:52.505Z,67.93
2023-02-27T02:06:52.504Z,67.30
2023-02-27T02:07:52.473Z,67.72
2023-02-27T02:08:52.483Z,66.47
2023-02-27T02:09:52.469Z,67.23
2023-02-27T02:10:53.430Z,67.30
2023-02-27T02:11:52.449Z,67.61
2023-02-27T02:12:53.445Z,67.10
2023-02-27T02:13:52.413Z,67.20
2023-02-27T02:14:52.448Z,66.57
2023-02-27T02:15:52.383Z,67.30
2023-02-27T02:16:53.383Z,67.17
2023-02-27T02:17:53.356Z,67.58
2023-02-27T02:18:53.374Z,67.17
2023-02-27T02:19:53.376Z,67.69
2023-02-27T02:20:53.330Z,67.48
2023-02-27T02:21:52.325Z,67.51
2023-02-27T02:22:52.307Z,67.61
2023-02-27T02:23:53.293Z,67.93
2023-02-27T02:24:52.402Z,66.96
2023-02-27T02:25:52.278Z,66.89
2023-02-27T02:26:52.251Z,67.82
2023-02-27T02:27:53.243Z,67.61
2023-02-27T02:28:52.236Z,67.30
2023-02-27T02:29:52.250Z,67.93
2023-02-27T02:30:52.366Z,67.69
2023-02-27T02:31:52.366Z,67.93
2023-02-27T02:32:52.180Z,67.17
2023-02-27T02:33:52.227Z,68.00
2023-02-27T02:34:53.206Z,67.93
2023-02-27T02:35:52.170Z,67.69
2023-02-27T02:36:52.184Z,68.52
2023-02-27T02:37:52.148Z,68.10
2023-02-27T02:38:52.129Z,67.69
2023-02-27T02:39:52.177Z,68.00
2023-02-27T02:40:52.110Z,67.27
2023-02-27T02:41:52.134Z,67.48
2023-02-27T02:42:53.433Z,67.17
2023-02-27T02:43:52.082Z,67.86
2023-02-27T02:44:52.065Z,68.07
2023-02-27T02:45:53.063Z,67.86
2023-02-27T02:46:52.041Z,67.03
2023-02-27T02:47:52.065Z,66.72
2023-02-27T02:48:52.048Z,67.03
2023-02-27T02:49:53.006Z,66.59
2023-02-27T02:50:52.037Z,66.80
2023-02-27T02:51:51.990Z,67.00
2023-02-27T02:52:52.006Z,66.90
2023-02-27T02:53:51.975Z,67.21
2023-02-27T02:54:51.971Z,67.00
2023-02-27T02:55:52.012Z,67.00
2023-02-27T02:56:51.959Z,68.04
2023-02-27T02:57:52.026Z,67.97
2023-02-27T02:58:51.930Z,67.76
2023-02-27T02:59:51.943Z,67.83
2023-02-27T03:00:52.898Z,67.83
2023-02-27T03:01:51.953Z,67.21
2023-02-27T03:02:51.869Z,68.46
2023-02-27T03:03:52.844Z,68.04
2023-02-27T03:04:52.903Z,67.83
2023-02-27T03:05:52.820Z,67.00
2023-02-27T03:06:52.894Z,67.83
2023-02-27T03:07:51.865Z,67.66
2023-02-27T03:08:51.818Z,66.69
2023-02-27T03:09:51.796Z,67.21
2023-02-27T03:10:51.812Z,68.04
2023-02-27T03:11:51.774Z,67.21
2023-02-27T03:12:52.923Z,67.00
2023-02-27T03:13:52.766Z,67.11
2023-02-27T03:14:51.729Z,67.73
2023-02-27T03:15:51.835Z,67.32
2023-02-27T03:16:51.772Z,67.21
2023-02-27T03:17:51.747Z,67.94
2023-02-27T03:18:52.730Z,68.56
2023-02-27T03:19:51.687Z,68.15
2023-02-27T03:20:51.679Z,68.56
2023-02-27T03:21:51.775Z,68.15
2023-02-27T03:22:51.695Z,68.56
2023-02-27T03:23:51.809Z,68.66
2023-02-27T03:24:51.741Z,68.56
2023-02-27T03:25:52.623Z,68.15
2023-02-27T03:26:51.609Z,68.12
2023-02-27T03:27:51.627Z,68.66
2023-02-27T03:28:51.585Z,68.32
2023-02-27T03:29:51.576Z,68.01
2023-02-27T03:30:51.748Z,67.80
2023-02-27T03:31:51.669Z,67.91
2023-02-27T03:32:51.640Z,68.15
2023-02-27T03:33:52.548Z,68.43
2023-02-27T03:34:51.529Z,68.22
2023-02-27T03:35:51.525Z,68.12
2023-02-27T03:36:51.483Z,68.01
2023-02-27T03:37:51.472Z,67.60
2023-02-27T03:38:52.487Z,67.60
2023-02-27T03:39:51.463Z,67.91
2023-02-27T03:40:52.498Z,67.60
2023-02-27T03:41:51.467Z,67.80
2023-02-27T03:42:51.468Z,67.60
2023-02-27T03:43:51.494Z,67.73
2023-02-27T03:44:52.473Z,68.01
2023-02-27T03:45:52.412Z,67.70
2023-02-27T03:46:51.392Z,67.94
2023-02-27T03:47:51.368Z,67.52
2023-02-27T03:48:51.374Z,67.94
2023-02-27T03:49:51.352Z,67.94
2023-02-27T03:50:51.356Z,67.94
2023-02-27T03:51:51.358Z,68.46
2023-02-27T03:52:51.375Z,68.35
2023-02-27T03:53:51.324Z,68.46
2023-02-27T03:54:52.320Z,68.98
2023-02-27T03:55:51.278Z,68.46
2023-02-27T03:56:51.325Z,68.25
2023-02-27T03:57:51.254Z,68.56
2023-02-27T03:58:51.263Z,68.46
2023-02-27T03:59:51.320Z,68.98
2023-02-27T04:00:52.238Z,69.09
2023-02-27T04:01:52.259Z,69.15
2023-02-27T04:02:51.283Z,69.19
2023-02-27T04:03:51.240Z,68.88
2023-02-27T04:04:51.193Z,68.04
2023-02-27T04:05:51.176Z,67.52
2023-02-27T04:06:51.170Z,68.35
2023-02-27T04:07:51.213Z,68.01
2023-02-27T04:08:51.174Z,67.49
2023-02-27T04:09:51.136Z,67.70
2023-02-27T04:10:52.133Z,67.39
2023-02-27T04:11:51.129Z,66.90
2023-02-27T04:12:51.123Z,66.56
2023-02-27T04:13:51.154Z,66.77
2023-02-27T04:14:52.135Z,66.97
2023-02-27T04:15:51.164Z,67.70
2023-02-27T04:16:51.080Z,67.70
2023-02-27T04:17:52.078Z,68.53
2023-02-27T04:18:51.039Z,68.32
2023-02-27T04:19:51.031Z,67.67
2023-02-27T04:20:51.020Z,67.08
2023-02-27T04:21:52.086Z,67.49
2023-02-27T04:22:50.995Z,67.15
2023-02-27T04:23:51.020Z,67.36
2023-02-27T04:24:51.983Z,67.15
2023-02-27T04:25:50.971Z,67.46
2023-02-27T04:26:50.963Z,68.40
2023-02-27T04:27:51.029Z,68.60
2023-02-27T04:28:50.939Z,68.60
2023-02-27T04:29:50.967Z,68.29
2023-02-27T04:30:51.012Z,68.19
2023-02-27T04:31:51.093Z,68.40
2023-02-27T04:32:50.955Z,68.71
2023-02-27T04:33:51.904Z,68.60
2023-02-27T04:34:51.903Z,68.81
2023-02-27T04:35:50.864Z,68.71
2023-02-27T04:36:50.896Z,67.98
2023-02-27T04:37:58.533Z,68.37
2023-02-27T04:38:51.834Z,67.77
2023-02-27T04:39:51.932Z,67.46
2023-02-27T04:40:50.839Z,67.67
2023-02-27T04:41:50.809Z,67.64
2023-02-27T04:42:50.845Z,67.64
2023-02-27T04:43:50.795Z,67.43
2023-02-27T04:44:51.773Z,67.57
2023-02-27T04:45:50.890Z,67.98
2023-02-27T04:46:51.763Z,67.74
2023-02-27T04:47:50.736Z,67.43
2023-02-27T04:48:50.843Z,67.95
2023-02-27T04:49:51.705Z,67.67
2023-02-27T04:50:51.712Z,67.64
2023-02-27T04:51:50.702Z,68.40
2023-02-27T04:52:50.699Z,68.37
2023-02-27T04:53:50.722Z,67.98
2023-02-27T04:54:51.680Z,67.98
2023-02-27T04:55:51.696Z,67.95
2023-02-27T04:56:51.730Z,68.88
2023-02-27T04:57:51.636Z,68.05
2023-02-27T04:58:50.638Z,68.08
2023-02-27T04:59:51.652Z,68.60
2023-02-27T05:00:50.615Z,68.19
2023-02-27T05:01:50.659Z,68.78
2023-02-27T05:02:50.686Z,68.19
2023-02-27T05:03:50.610Z,68.26
2023-02-27T05:04:50.588Z,67.67
2023-02-27T05:05:50.550Z,67.43
2023-02-27T05:06:50.526Z,67.74
2023-02-27T05:07:51.520Z,68.05
2023-02-27T05:08:50.514Z,67.64
2023-02-27T05:09:51.537Z,67.74
2023-02-27T05:10:51.474Z,67.98
2023-02-27T05:11:50.469Z,67.43
2023-02-27T05:12:50.458Z,67.67
2023-02-27T05:13:50.468Z,67.98
2023-02-27T05:14:50.589Z,68.05
2023-02-27T05:15:50.517Z,68.37
2023-02-27T05:16:50.487Z,68.16
2023-02-27T05:17:50.456Z,68.57
2023-02-27T05:18:50.402Z,68.16
2023-02-27T05:19:50.397Z,68.47
2023-02-27T05:20:50.410Z,68.26
2023-02-27T05:21:51.397Z,68.50
2023-02-27T05:22:50.347Z,67.85
2023-02-27T05:23:50.350Z,67.57
2023-02-27T05:24:50.396Z,67.88
2023-02-27T05:25:50.328Z,68.08
2023-02-27T05:26:50.323Z,68.50
2023-02-27T05:27:50.331Z,68.50
2023-02-27T05:28:50.302Z,67.95
2023-02-27T05:29:50.328Z,67.95
2023-02-27T05:30:50.321Z,68.40
2023-02-27T05:31:50.446Z,68.16
2023-02-27T05:32:50.272Z,67.88
2023-02-27T05:33:50.257Z,67.36
2023-02-27T05:34:50.269Z,67.88
2023-02-27T05:35:51.350Z,67.15
2023-02-27T05:36:51.247Z,67.05
2023-02-27T05:37:50.185Z,67.74
2023-02-27T05:38:50.192Z,67.98
2023-02-27T05:39:50.188Z,67.77
2023-02-27T05:40:50.151Z,67.43
2023-02-27T05:41:51.233Z,67.98
2023-02-27T05:42:50.163Z,67.88
2023-02-27T05:43:50.128Z,67.88
2023-02-27T05:44:50.126Z,68.19
2023-02-27T05:45:50.170Z,68.08
2023-02-27T05:46:50.142Z,67.98
2023-02-27T05:47:50.077Z,67.60
2023-02-27T05:48:50.158Z,68.32
2023-02-27T05:49:50.062Z,67.80
2023-02-27T05:50:50.059Z,68.22
2023-02-27T05:51:50.078Z,68.43
2023-02-27T05:52:50.037Z,68.22
2023-02-27T05:53:50.010Z,68.32
2023-02-27T05:54:51.064Z,68.84
2023-02-27T05:55:49.988Z,68.74
2023-02-27T05:56:50.989Z,68.84
2023-02-27T05:57:50.968Z,68.81
2023-02-27T05:58:49.966Z,68.43
2023-02-27T05:59:49.979Z,68.01
2023-02-27T06:00:50.038Z,68.74
2023-02-27T06:01:49.964Z,68.22
2023-02-27T06:02:49.985Z,68.22
2023-02-27T06:03:50.911Z,68.22
2023-02-27T06:04:49.925Z,68.74
2023-02-27T06:05:49.883Z,68.74
2023-02-27T06:06:49.898Z,68.95
2023-02-27T06:07:50.901Z,68.32
2023-02-27T06:08:50.869Z,68.98
2023-02-27T06:09:49.870Z,68.63
2023-02-27T06:10:49.871Z,69.09
2023-02-27T06:11:49.818Z,69.29
2023-02-27T06:12:49.819Z,69.26
2023-02-27T06:13:49.826Z,69.50
2023-02-27T06:14:50.831Z,68.88
2023-02-27T06:15:49.780Z,68.98
2023-02-27T06:16:49.917Z,69.40
2023-02-27T06:17:49.770Z,69.40
2023-02-27T06:18:49.762Z,69.60
2023-02-27T06:19:49.783Z,69.71
2023-02-27T06:20:49.757Z,69.40
2023-02-27T06:21:49.726Z,69.29
2023-02-27T06:22:49.732Z,69.40
2023-02-27T06:23:49.752Z,69.19
2023-02-27T06:24:49.691Z,69.40
2023-02-27T06:25:49.682Z,68.66
2023-02-27T06:26:49.685Z,68.77
2023-02-27T06:27:49.701Z,68.98
2023-02-27T06:28:49.664Z,68.88
2023-02-27T06:29:50.639Z,69.32
2023-02-27T06:30:49.666Z,69.60
2023-02-27T06:31:50.669Z,69.60
2023-02-27T06:32:49.612Z,69.60
2023-02-27T06:33:49.594Z,69.60
2023-02-27T06:34:49.624Z,69.29
2023-02-27T06:35:49.637Z,69.19
2023-02-27T06:36:49.668Z,69.37
2023-02-27T06:37:49.558Z,69.05
2023-02-27T06:38:49.546Z,69.26
2023-02-27T06:39:49.531Z,69.05
2023-02-27T06:40:50.527Z,69.15
2023-02-27T06:41:49.624Z,69.05
2023-02-27T06:42:49.480Z,68.81
2023-02-27T06:43:49.493Z,68.60
2023-02-27T06:44:49.490Z,68.74
2023-02-27T06:45:49.495Z,68.63
2023-02-27T06:46:49.453Z,68.84
2023-02-27T06:47:49.517Z,68.84
2023-02-27T06:48:49.414Z,69.15
2023-02-27T06:49:49.427Z,68.74
2023-02-27T06:50:50.413Z,69.15
2023-02-27T06:51:49.423Z,69.05
2023-02-27T06:52:49.508Z,68.95
2023-02-27T06:53:49.469Z,69.29
2023-02-27T06:54:49.348Z,69.19
2023-02-27T06:55:50.357Z,69.26
2023-02-27T06:56:49.345Z,69.50
2023-02-27T06:57:49.362Z,69.81
2023-02-27T06:58:49.311Z,70.23
2023-02-27T06:59:49.366Z,70.23
2023-02-27T07:00:49.293Z,70.09
2023-02-27T07:01:50.271Z,70.02
2023-02-27T07:02:49.304Z,70.33
2023-02-27T07:03:50.296Z,69.99
2023-02-27T07:04:49.309Z,70.23
2023-02-27T07:05:50.269Z,70.12
2023-02-27T07:07:35.073Z,70.12
2023-02-27T07:07:50.210Z,70.23
2023-02-27T07:09:01.798Z,70.33
2023-02-27T07:09:50.194Z,70.09
2023-02-27T07:10:49.311Z,69.99
2023-02-27T07:11:49.211Z,69.89
2023-02-27T07:12:49.198Z,69.89
2023-02-27T07:13:49.161Z,70.09
2023-02-27T07:14:49.152Z,69.99
2023-02-27T07:15:49.259Z,70.30
2023-02-27T07:16:49.124Z,70.37
2023-02-27T07:17:49.127Z,70.61
2023-02-27T07:18:50.130Z,70.17
2023-02-27T07:19:49.101Z,70.58
2023-02-27T07:20:49.161Z,70.61
2023-02-27T07:21:49.078Z,70.30
2023-02-27T07:22:49.101Z,70.30
2023-02-27T07:23:50.061Z,70.51
2023-02-27T07:24:50.076Z,70.30
2023-02-27T07:25:49.043Z,70.61
2023-02-27T07:26:49.018Z,70.72
2023-02-27T07:27:49.026Z,70.37
2023-02-27T07:28:49.997Z,70.27
2023-02-27T07:29:49.009Z,70.40
2023-02-27T07:30:50.053Z,70.48
2023-02-27T07:31:49.071Z,70.17
2023-02-27T07:32:48.957Z,70.06
2023-02-27T07:33:48.957Z,70.06
2023-02-27T07:34:48.928Z,70.34
2023-02-27T07:35:48.990Z,70.48
2023-02-27T07:36:49.937Z,70.17
2023-02-27T07:37:48.938Z,69.61
2023-02-27T07:38:48.891Z,69.61
2023-02-27T07:39:48.902Z,69.30
2023-02-27T07:40:48.882Z,68.78
2023-02-27T07:41:48.872Z,68.65
2023-02-27T07:42:48.916Z,68.85
2023-02-27T07:43:49.836Z,68.33
2023-02-27T07:44:48.812Z,67.68
2023-02-27T07:45:48.802Z,67.89
2023-02-27T07:46:48.961Z,66.85
2023-02-27T07:47:48.816Z,67.27
2023-02-27T07:48:49.817Z,66.75
2023-02-27T07:49:49.770Z,66.64
2023-02-27T07:50:48.764Z,66.33
2023-02-27T07:51:49.734Z,66.02
2023-02-27T07:52:48.801Z,66.02
2023-02-27T07:53:48.750Z,65.68
2023-02-27T07:54:48.729Z,65.47
2023-02-27T07:55:49.693Z,65.86
2023-02-27T07:56:49.708Z,64.85
2023-02-27T07:57:48.692Z,65.34
2023-02-27T07:58:48.712Z,64.92
2023-02-27T07:59:48.707Z,63.92
2023-02-27T08:00:48.655Z,64.92
2023-02-27T08:01:48.632Z,65.44
2023-02-27T08:02:48.713Z,64.82
2023-02-27T08:03:48.622Z,63.68
2023-02-27T08:04:48.874Z,65.00
2023-02-27T08:05:48.607Z,63.85
2023-02-27T08:06:48.602Z,63.75
2023-02-27T08:07:48.570Z,63.34
2023-02-27T08:08:48.554Z,62.74
2023-02-27T08:09:48.618Z,63.47
2023-02-27T08:10:48.677Z,63.26
2023-02-27T08:11:49.550Z,63.65
2023-02-27T08:12:48.545Z,63.75
2023-02-27T08:13:59.985Z,63.96
2023-02-27T08:14:49.504Z,63.96
2023-02-27T08:15:48.508Z,64.09
2023-02-27T08:16:48.604Z,63.89
2023-02-27T08:17:48.473Z,64.27
2023-02-27T08:18:49.484Z,64.20
2023-02-27T08:19:48.440Z,65.47
2023-02-27T08:20:48.434Z,65.78
2023-02-27T08:21:48.419Z,65.47
2023-02-27T08:22:48.411Z,65.99
2023-02-27T08:23:48.426Z,66.20
2023-02-27T08:24:48.383Z,65.89
2023-02-27T08:25:48.370Z,66.22
2023-02-27T08:26:49.358Z,66.75
2023-02-27T08:27:48.377Z,67.47
2023-02-27T08:28:48.570Z,66.72
2023-02-27T08:29:48.396Z,66.61
2023-02-27T08:30:48.312Z,66.38
2023-02-27T08:31:48.478Z,65.89
2023-02-27T08:32:48.297Z,66.33
2023-02-27T08:33:49.625Z,66.88
2023-02-27T08:34:48.432Z,66.88
2023-02-27T08:35:48.289Z,67.37
2023-02-27T08:36:48.294Z,67.68
2023-02-27T08:37:48.254Z,66.54
2023-02-27T08:38:48.232Z,67.37
2023-02-27T08:39:48.312Z,67.79
2023-02-27T08:40:48.318Z,67.34
2023-02-27T08:41:48.215Z,66.93
2023-02-27T08:42:48.210Z,66.51
2023-02-27T08:43:48.163Z,67.51
2023-02-27T08:44:48.260Z,66.38
2023-02-27T08:45:48.219Z,65.75
2023-02-27T08:46:49.376Z,66.58
2023-02-27T08:47:48.136Z,66.65
2023-02-27T08:48:48.110Z,66.14
2023-02-27T08:49:48.117Z,66.03
2023-02-27T08:50:48.129Z,66.14
2023-02-27T08:51:48.739Z,66.14
2023-02-27T08:52:48.196Z,66.24
2023-02-27T08:53:48.053Z,65.83
2023-02-27T08:54:48.045Z,66.03
2023-02-27T08:55:48.045Z,65.96
2023-02-27T08:56:48.046Z,65.75
2023-02-27T08:57:48.042Z,66.38
2023-02-27T08:58:48.282Z,65.83
2023-02-27T08:59:48.068Z,65.86
2023-02-27T09:00:49.007Z,66.27
2023-02-27T09:01:47.978Z,66.06
2023-02-27T09:02:48.045Z,66.27
2023-02-27T09:03:47.973Z,66.17
2023-02-27T09:04:49.036Z,66.47
2023-02-27T09:05:47.921Z,66.38
2023-02-27T09:06:47.922Z,66.06
2023-02-27T09:07:47.910Z,65.96
2023-02-27T09:08:47.906Z,65.75
2023-02-27T09:09:50.092Z,65.96
2023-02-27T09:10:48.064Z,66.35
2023-02-27T09:11:47.893Z,66.75
2023-02-27T09:12:47.843Z,66.24
2023-02-27T09:13:47.838Z,65.48
2023-02-27T09:14:47.857Z,65.48
2023-02-27T09:15:47.891Z,65.41
2023-02-27T09:16:47.907Z,65.59
2023-02-27T09:17:47.802Z,65.38
2023-02-27T09:18:48.804Z,65.72
2023-02-27T09:19:47.814Z,65.93
2023-02-27T09:20:48.777Z,66.14
2023-02-27T09:21:47.765Z,65.83
2023-02-27T09:22:48.827Z,65.72
2023-02-27T09:23:47.725Z,66.65
2023-02-27T09:24:47.730Z,65.83
2023-02-27T09:25:48.707Z,66.03
2023-02-27T09:26:49.029Z,66.00
2023-02-27T09:27:47.686Z,65.97
2023-02-27T09:28:47.806Z,65.97
2023-02-27T09:29:47.706Z,65.14
2023-02-27T09:30:47.674Z,64.83
2023-02-27T09:31:47.852Z,64.34
2023-02-27T09:32:48.702Z,64.62
2023-02-27T09:33:47.686Z,64.83
2023-02-27T09:34:47.607Z,65.04
2023-02-27T09:35:47.675Z,63.76
2023-02-27T09:36:47.587Z,63.69
2023-02-27T09:37:47.594Z,64.11
2023-02-27T09:38:47.668Z,64.00
2023-02-27T09:39:47.611Z,64.11
2023-02-27T09:40:47.589Z,63.79
2023-02-27T09:41:48.559Z,63.76
2023-02-27T09:42:47.536Z,63.97
2023-02-27T09:43:47.507Z,63.87
2023-02-27T09:44:47.798Z,63.84
2023-02-27T09:45:47.575Z,64.07
2023-02-27T09:46:47.473Z,63.66
2023-02-27T09:47:47.491Z,63.66
2023-02-27T09:48:47.615Z,63.66
2023-02-27T09:49:47.589Z,63.95
2023-02-27T09:50:47.445Z,64.04
2023-02-27T09:51:47.444Z,63.84
2023-02-27T09:52:47.421Z,64.77
2023-02-27T09:53:47.434Z,63.92
2023-02-27T09:54:47.402Z,63.40
2023-02-27T09:55:47.501Z,63.25
2023-02-27T09:56:47.386Z,63.35
2023-02-27T09:57:48.364Z,63.76
2023-02-27T09:58:47.359Z,63.97
2023-02-27T09:59:48.326Z,63.97
2023-02-27T10:00:47.361Z,63.84
2023-02-27T10:01:47.379Z,63.95
2023-02-27T10:02:47.325Z,63.95
2023-02-27T10:03:48.302Z,63.84
2023-02-27T10:04:48.291Z,63.74
2023-02-27T10:05:47.265Z,64.02
2023-02-27T10:06:47.312Z,63.81
2023-02-27T10:07:47.276Z,63.40
2023-02-27T10:08:48.244Z,63.19
2023-02-27T10:09:47.259Z,63.50
2023-02-27T10:10:48.229Z,63.89
2023-02-27T10:11:47.220Z,63.50
2023-02-27T10:12:48.206Z,63.26
2023-02-27T10:13:47.245Z,63.47
2023-02-27T10:14:48.208Z,63.06
2023-02-27T10:15:47.177Z,62.85
2023-02-27T10:16:47.169Z,62.65
2023-02-27T10:17:47.148Z,62.54
2023-02-27T10:18:48.159Z,62.26
2023-02-27T10:19:48.355Z,62.91
2023-02-27T10:20:47.123Z,63.22
2023-02-27T10:21:47.118Z,63.53
2023-02-27T10:22:47.095Z,63.53
2023-02-27T10:23:47.085Z,63.64
2023-02-27T10:24:48.066Z,63.53
2023-02-27T10:25:47.241Z,63.92
2023-02-27T10:26:47.063Z,63.29
2023-02-27T10:27:47.050Z,63.89
2023-02-27T10:28:47.033Z,63.68
2023-02-27T10:29:48.034Z,63.03
2023-02-27T10:30:47.061Z,61.40
2023-02-27T10:31:47.271Z,61.79
2023-02-27T10:32:46.991Z,61.38
2023-02-27T10:33:46.967Z,61.48
2023-02-27T10:34:46.956Z,61.71
2023-02-27T10:35:47.981Z,62.44
2023-02-27T10:36:46.986Z,62.72
2023-02-27T10:37:47.106Z,63.03
2023-02-27T10:38:46.911Z,62.23
2023-02-27T10:39:46.896Z,61.99
2023-02-27T10:40:47.904Z,61.27
2023-02-27T10:41:46.890Z,61.20
2023-02-27T10:42:46.879Z,61.54
2023-02-27T10:43:48.014Z,62.05
2023-02-27T10:44:46.839Z,62.16
2023-02-27T10:45:46.828Z,61.54
2023-02-27T10:46:46.879Z,62.16
2023-02-27T10:47:46.848Z,62.65
2023-02-27T10:48:46.808Z,62.75
2023-02-27T10:49:46.848Z,61.92
2023-02-27T10:50:46.772Z,61.40
2023-02-27T10:51:46.791Z,61.20
2023-02-27T10:52:46.803Z,60.89
2023-02-27T10:53:46.779Z,61.17
2023-02-27T10:54:46.741Z,61.82
2023-02-27T10:55:47.753Z,61.30
2023-02-27T10:56:46.706Z,62.44
2023-02-27T10:57:46.718Z,61.51
2023-02-27T10:58:46.685Z,61.82
2023-02-27T10:59:46.694Z,61.79
2023-02-27T11:00:46.681Z,61.45
2023-02-27T11:01:46.803Z,60.93
2023-02-27T11:02:46.640Z,60.52
2023-02-27T11:03:46.650Z,59.80
2023-02-27T11:04:47.701Z,59.23
2023-02-27T11:05:46.609Z,59.85
2023-02-27T11:06:46.676Z,59.62
2023-02-27T11:07:47.747Z,59.83
2023-02-27T11:08:50.236Z,59.18
2023-02-27T11:09:46.575Z,59.28
2023-02-27T11:10:46.561Z,58.56
2023-02-27T11:11:46.543Z,58.66
2023-02-27T11:12:47.573Z,58.28
2023-02-27T11:13:46.562Z,58.92
2023-02-27T11:14:46.559Z,58.92
2023-02-27T11:15:46.554Z,59.52
2023-02-27T11:16:46.512Z,59.13
2023-02-27T11:17:46.520Z,58.38
2023-02-27T11:18:46.477Z,58.69
2023-02-27T11:19:47.469Z,59.23
2023-02-27T11:20:46.470Z,59.41
2023-02-27T11:21:47.471Z,58.89
2023-02-27T11:22:46.449Z,59.39
2023-02-27T11:23:47.436Z,59.36
2023-02-27T11:24:46.467Z,58.94
2023-02-27T11:25:46.414Z,58.87
2023-02-27T11:26:46.440Z,58.07
2023-02-27T11:27:46.425Z,59.31
2023-02-27T11:28:46.393Z,59.83
2023-02-27T11:29:47.422Z,59.18
2023-02-27T11:30:46.404Z,59.28
2023-02-27T11:31:46.372Z,58.53
2023-02-27T11:32:46.444Z,57.81
2023-02-27T11:33:46.321Z,57.84
2023-02-27T11:34:46.299Z,57.94
2023-02-27T11:35:46.424Z,57.73
2023-02-27T11:36:46.298Z,58.43
2023-02-27T11:37:47.263Z,57.70
2023-02-27T11:38:46.261Z,57.81
2023-02-27T11:39:46.276Z,58.22
2023-02-27T11:40:46.259Z,58.33
2023-02-27T11:41:46.238Z,58.01
2023-02-27T11:42:47.220Z,57.50
2023-02-27T11:43:46.213Z,56.57
2023-02-27T11:44:50.763Z,56.77
2023-02-27T11:46:12.169Z,56.98
2023-02-27T11:46:48.787Z,57.29
2023-02-27T11:47:47.154Z,57.37
2023-02-27T11:48:47.164Z,56.88
2023-02-27T11:49:46.148Z,57.89
2023-02-27T11:50:46.149Z,58.09
2023-02-27T11:51:46.124Z,56.98
2023-02-27T11:52:46.128Z,56.85
2023-02-27T11:53:46.103Z,56.37
2023-02-27T11:54:47.089Z,57.70
2023-02-27T11:55:47.074Z,57.60
2023-02-27T11:56:47.114Z,57.70
2023-02-27T11:57:46.078Z,58.12
2023-02-27T11:58:46.037Z,57.29
2023-02-27T11:59:46.057Z,57.40
2023-02-27T12:00:46.016Z,57.09
2023-02-27T12:01:46.067Z,55.74
2023-02-27T12:02:46.049Z,56.96
2023-02-27T12:03:46.061Z,57.09
2023-02-27T12:04:45.993Z,56.44
2023-02-27T12:05:46.953Z,56.85
2023-02-27T12:06:45.951Z,57.81
2023-02-27T12:07:45.982Z,57.50
2023-02-27T12:08:45.945Z,57.57
2023-02-27T12:09:45.954Z,56.75
2023-02-27T12:10:45.925Z,57.06
2023-02-27T12:11:45.905Z,57.26
2023-02-27T12:12:45.904Z,57.26
2023-02-27T12:13:45.922Z,56.21
2023-02-27T12:14:45.942Z,56.00
2023-02-27T12:15:46.869Z,54.56
2023-02-27T12:16:45.956Z,54.25
2023-02-27T12:17:45.856Z,54.48
2023-02-27T12:18:45.820Z,53.96
2023-02-27T12:19:45.823Z,54.38
2023-02-27T12:20:46.891Z,54.35
2023-02-27T12:21:46.982Z,53.74
2023-02-27T12:22:45.816Z,54.06
2023-02-27T12:23:46.781Z,54.90
2023-02-27T12:24:45.776Z,54.17
2023-02-27T12:25:45.766Z,55.10
2023-02-27T12:26:46.840Z,54.92
2023-02-27T12:27:45.720Z,54.94
2023-02-27T12:28:45.753Z,55.33
2023-02-27T12:29:45.715Z,55.23
2023-02-27T12:30:45.720Z,56.18
2023-02-27T12:31:45.753Z,55.77
2023-02-27T12:32:45.744Z,56.16
2023-02-27T12:33:45.668Z,56.39
2023-02-27T12:34:45.661Z,56.70
2023-02-27T12:35:46.677Z,57.11
2023-02-27T12:36:46.626Z,56.46
2023-02-27T12:37:45.621Z,55.64
2023-02-27T12:38:45.669Z,56.16
2023-02-27T12:39:46.592Z,56.16
2023-02-27T12:40:46.612Z,56.81
2023-02-27T12:41:45.600Z,57.50
2023-02-27T12:42:45.558Z,57.09
2023-02-27T12:43:46.549Z,57.70
2023-02-27T12:44:45.612Z,57.60
2023-02-27T12:45:46.551Z,57.91
2023-02-27T12:46:45.549Z,57.09
2023-02-27T12:47:46.514Z,56.88
2023-02-27T12:48:45.492Z,56.90
2023-02-27T12:49:45.494Z,58.04
2023-02-27T12:50:45.511Z,58.07
2023-02-27T12:51:45.481Z,57.86
2023-02-27T12:52:46.451Z,58.07